Time;durP1;ratioP1;P1;durP2;ratioP2;P2;SDS_P1;SDS_P2;PMS_P1;PMS_P2;Temp;Humidity;BMP_temperature;BMP_pressure;BME280_temperature;BME280_humidity;BME280_pressure;Samples;Min_cycle;Max_cycle;Signal;HPM_P1;HPM_P2
2023/10/27 00:02:02;;;;;;;37.47;16.30;;;;;;;10.14;100.00;99148.81;6278412;22;20003;-96
2023/10/27 00:04:45;;;;;;;39.40;17.98;;;;;;;10.12;100.00;99154.03;6279395;22;20027;-96
2023/10/27 00:07:34;;;;;;;38.17;17.15;;;;;;;10.09;100.00;99156.63;6278822;22;19999;-96
2023/10/27 00:10:02;;;;;;;36.55;17.50;;;;;;;10.08;100.00;99154.94;6268805;22;20074;-96
2023/10/27 00:12:42;;;;;;;36.13;17.83;;;;;;;10.06;100.00;99149.69;6304166;22;20003;-96
2023/10/27 00:15:14;;;;;;;33.90;16.77;;;;;;;10.05;100.00;99150.59;6278033;22;20006;-96
2023/10/27 00:17:40;;;;;;;38.50;16.90;;;;;;;10.06;100.00;99147.09;6277880;22;20008;-96
2023/10/27 00:20:09;;;;;;;37.78;17.83;;;;;;;10.06;100.00;99146.25;6277542;22;20007;-96
2023/10/27 00:22:38;;;;;;;38.17;17.42;;;;;;;10.07;100.00;99153.19;6278017;22;20026;-96
2023/10/27 00:25:17;;;;;;;;;;;;;;;;;;;;;
2023/10/27 00:28:02;;;;;;;36.83;17.67;;;;;;;10.07;100.00;99145.38;6306392;22;20417;-96
2023/10/27 00:30:37;;;;;;;35.90;17.23;;;;;;;10.07;100.00;99143.63;6279099;22;19995;-96
2023/10/27 00:33:02;;;;;;;39.22;18.80;;;;;;;10.08;100.00;99140.16;6279318;22;20351;-96
2023/10/27 00:35:34;;;;;;;36.83;17.70;;;;;;;10.07;100.00;99140.19;6277562;22;20035;-96
2023/10/27 00:38:02;;;;;;;38.63;17.88;;;;;;;10.07;100.00;99135.81;6304962;22;20018;-96
2023/10/27 00:40:45;;;;;;;39.03;18.07;;;;;;;10.05;100.00;99131.47;6278016;22;20007;-96
2023/10/27 00:43:24;;;;;;;35.65;16.10;;;;;;;10.05;100.00;99131.47;6278134;22;20330;-96
2023/10/27 00:45:56;;;;;;;;;;;;;;;10.08;100.00;99132.38;6278986;22;20030;-96
2023/10/27 00:49:01;;;;;;;36.95;17.98;;;;;;;10.05;100.00;99127.16;6278102;22;20317;-96
2023/10/27 00:51:29;;;;;;;36.72;18.15;;;;;;;10.03;100.00;99128.88;6277545;22;20070;-96
2023/10/27 00:54:02;;;;;;;37.80;18.20;;;;;;;10.03;100.00;99134.09;6278552;22;20014;-96
2023/10/27 00:56:37;;;;;;;36.85;17.80;;;;;;;10.02;100.00;99123.69;6304988;22;20035;-96
2023/10/27 00:59:03;;;;;;;37.35;17.33;;;;;;;10.02;100.00;99134.09;6277814;22;20011;-96
2023/10/27 01:01:34;;;;;;;44.25;19.88;;;;;;;10.01;100.00;99127.19;6278392;22;20641;-96
2023/10/27 01:04:00;;;;;;;35.38;17.73;;;;;;;10.00;100.00;99120.25;6304405;22;20061;-96
2023/10/27 01:06:29;;;;;;;38.45;18.38;;;;;;;10.01;100.00;99119.38;6277698;22;20066;-96
2023/10/27 01:09:00;;;;;;;38.78;18.17;;;;;;;10.01;100.00;99125.44;6278214;22;20007;-96
2023/10/27 01:11:31;;;;;;;34.78;17.02;;;;;;;10.01;100.00;99122.84;6278390;22;20014;-96
2023/10/27 01:14:02;;;;;;;41.63;18.92;;;;;;;10.02;100.00;99121.09;6278129;22;20003;-96
2023/10/27 01:16:36;;;;;;;34.85;16.95;;;;;;;10.03;100.00;99122.84;6303869;22;20070;-96
2023/10/27 01:19:02;;;;;;;37.50;18.08;;;;;;;10.03;100.00;99125.44;6277327;22;20341;-96
2023/10/27 01:21:46;;;;;;;38.13;17.70;;;;;;;10.04;100.00;99114.16;6277979;22;20078;-96
2023/10/27 01:24:16;;;;;;;32.58;16.20;;;;;;;10.04;100.00;99108.97;6277318;22;20253;-96
2023/10/27 01:27:11;;;;;;;38.28;18.27;;;;;;;10.05;100.00;99119.34;6277881;22;20007;-96
2023/10/27 01:33:09;;;;;;;37.15;17.55;;;;;;;10.05;100.00;99110.66;6306582;22;20030;-96
2023/10/27 01:35:58;;;;;;;34.95;16.80;;;;;;;10.05;100.00;99110.66;6305486;22;20003;-96
2023/10/27 01:38:29;;;;;;;33.30;17.30;;;;;;;10.03;100.00;99117.63;6279502;22;20310;-96
2023/10/27 01:41:10;;;;;;;36.45;17.75;;;;;;;10.04;100.00;99108.97;6278533;22;20030;-96
2023/10/27 01:43:48;;;;;;;31.98;16.67;;;;;;;10.04;100.00;99114.16;6278820;22;20390;-96
2023/10/27 01:46:28;;;;;;;35.72;16.50;;;;;;;10.05;100.00;99110.66;6279027;22;20031;-96
2023/10/27 01:49:03;;;;;;;36.25;17.30;;;;;;;10.04;100.00;99112.41;6275873;22;20003;-96
2023/10/27 01:51:31;;;;;;;35.67;16.27;;;;;;;10.04;100.00;99108.97;6278897;22;20003;-96
2023/10/27 01:54:02;;;;;;;31.50;16.38;;;;;;;10.02;100.00;99106.38;6279919;22;20030;-96
2023/10/27 01:56:34;;;;;;;30.00;16.73;;;;;;;10.03;100.00;99096.81;6279073;22;20031;-96
2023/10/27 01:59:02;;;;;;;29.50;15.77;;;;;;;10.03;100.00;99094.22;6279624;22;20242;-96
2023/10/27 02:02:48;;;;;;;30.43;15.80;;;;;;;10.05;100.00;99106.34;6279211;22;20010;-96
2023/10/27 02:04:54;;;;;;;30.30;15.60;;;;;;;10.04;100.00;99090.75;6272570;22;20007;-96
2023/10/27 02:07:23;;;;;;;30.17;16.05;;;;;;;10.04;100.00;99099.41;6279449;22;20197;-96
2023/10/27 02:10:00;;;;;;;33.13;15.85;;;;;;;10.03;100.00;99087.25;6279058;22;20101;-96
2023/10/27 02:12:32;;;;;;;28.27;14.88;;;;;;;10.04;100.00;99093.34;6278879;22;20042;-96
2023/10/27 02:15:03;;;;;;;30.67;15.50;;;;;;;10.03;100.00;99089.00;6278796;22;20029;-96
2023/10/27 02:17:39;;;;;;;31.63;15.38;;;;;;;10.03;100.00;99086.41;6279486;22;20007;-96
2023/10/27 02:20:14;;;;;;;34.03;14.77;;;;;;;10.01;100.00;99083.81;6278301;22;20011;-96
2023/10/27 02:23:01;;;;;;;28.55;15.85;;;;;;;10.00;100.00;99089.88;6278483;22;20030;-96
2023/10/27 02:25:41;;;;;;;28.85;14.32;;;;;;;10.00;100.00;99076.00;6279293;22;20000;-95
2023/10/27 02:28:15;;;;;;;27.88;13.85;;;;;;;9.98;100.00;99078.63;6278050;22;20014;-96
2023/10/27 02:31:00;;;;;;;31.98;14.63;;;;;;;9.97;100.00;99082.06;6279673;22;19995;-96
2023/10/27 02:33:34;;;;;;;29.60;14.50;;;;;;;9.98;100.00;99077.72;6278612;22;20342;-96
2023/10/27 02:36:03;;;;;;;28.70;14.43;;;;;;;9.97;100.00;99078.63;6279401;22;20003;-96
2023/10/27 02:38:34;;;;;;;31.88;14.77;;;;;;;9.95;100.00;99073.41;6278765;22;20003;-96
2023/10/27 02:41:10;;;;;;;27.85;14.48;;;;;;;9.97;100.00;99073.41;6304115;22;20045;-96
2023/10/27 02:43:37;;;;;;;30.83;13.90;;;;;;;9.96;100.00;99064.72;6279053;22;20064;-96
2023/10/27 02:46:06;;;;;;;28.23;14.23;;;;;;;9.96;100.00;99069.06;6304615;22;20003;-96
2023/10/27 02:48:32;;;;;;;28.97;13.73;;;;;;;9.96;100.00;99067.31;6279163;22;20003;-96
2023/10/27 02:51:17;;;;;;;26.30;14.25;;;;;;;9.97;100.00;99068.22;6278600;22;20003;-96
2023/10/27 02:53:43;;;;;;;24.95;13.57;;;;;;;9.96;100.00;99069.94;6304237;22;20003;-96
2023/10/27 02:56:11;;;;;;;25.80;13.55;;;;;;;9.96;100.00;99064.72;6305268;22;20532;-96
2023/10/27 02:58:46;;;;;;;23.40;12.88;;;;;;;9.95;100.00;99059.53;6278950;22;20023;-96
2023/10/27 03:01:28;;;;;;;;;;;;;;;;;;;;;
2023/10/27 03:04:02;;;;;;;24.70;12.18;;;;;;;9.94;100.00;99058.66;6305568;22;20082;-96
2023/10/27 03:06:37;;;;;;;25.40;12.30;;;;;;;9.94;100.00;99057.81;6279046;22;20017;-96
2023/10/27 03:09:02;;;;;;;24.33;12.02;;;;;;;9.95;100.00;99054.31;6278608;22;20003;-96
2023/10/27 03:11:35;;;;;;;26.02;13.10;;;;;;;9.94;100.00;99057.81;6279607;22;20027;-95
2023/10/27 03:14:01;;;;;;;25.75;12.50;;;;;;;9.95;100.00;99056.91;6279266;22;20003;-96
2023/10/27 03:16:39;;;;;;;22.95;12.48;;;;;;;9.96;100.00;99062.13;6279035;22;20006;-96
2023/10/27 03:19:05;;;;;;;25.70;11.80;;;;;;;9.96;100.00;99051.72;6279200;22;20062;-96
2023/10/27 03:21:36;;;;;;;24.38;12.15;;;;;;;9.98;100.00;99056.91;6279515;22;20015;-96
2023/10/27 03:24:01;;;;;;;26.02;13.20;;;;;;;9.99;100.00;99053.44;6304534;22;20326;-96
2023/10/27 03:26:48;;;;;;;23.55;11.48;;;;;;;9.97;100.00;99050.00;6279274;22;20013;-96
2023/10/27 03:29:32;;;;;;;23.80;12.00;;;;;;;9.98;100.00;99051.72;6278695;22;19999;-96
2023/10/27 03:32:00;;;;;;;22.02;11.40;;;;;;;9.98;100.00;99046.50;6278854;22;20003;-96
2023/10/27 03:34:31;;;;;;;23.55;12.18;;;;;;;9.98;100.00;99051.72;6279131;22;20002;-96
2023/10/27 03:37:03;;;;;;;22.02;11.23;;;;;;;9.98;100.00;99055.19;6277722;22;20065;-96
2023/10/27 03:39:43;;;;;;;20.73;11.32;;;;;;;9.99;100.00;99050.84;6303727;22;20026;-96
2023/10/27 03:42:12;;;;;;;23.30;11.27;;;;;;;9.98;100.00;99049.09;6276805;22;20039;-96
2023/10/27 03:44:40;;;;;;;20.35;11.18;;;;;;;9.98;100.00;99051.72;6277337;22;20014;-96
2023/10/27 03:47:06;;;;;;;21.63;11.50;;;;;;;9.96;100.00;99043.06;6276866;22;20007;-95
2023/10/27 03:49:42;;;;;;;21.10;11.65;;;;;;;9.98;100.00;99046.50;6278050;22;20006;-96
2023/10/27 03:52:16;;;;;;;21.25;10.90;;;;;;;9.97;100.00;99045.66;6277559;22;20007;-96
2023/10/27 03:55:02;;;;;;;21.50;10.98;;;;;;;9.97;100.00;99043.03;6277911;22;20007;-96
2023/10/27 03:57:35;;;;;;;19.20;10.13;;;;;;;9.97;100.00;99040.44;6277024;22;20041;-96
2023/10/27 04:00:02;;;;;;;18.83;10.30;;;;;;;9.97;100.00;99042.19;6277320;22;20015;-96
2023/10/27 04:02:33;;;;;;;19.13;10.02;;;;;;;9.95;100.00;99042.19;6278087;22;20010;-96
2023/10/27 04:05:03;;;;;;;22.02;10.40;;;;;;;9.92;100.00;99037.88;6277479;22;20013;-96
2023/10/27 04:07:33;;;;;;;17.15;9.50;;;;;;;9.91;100.00;99041.31;6278193;22;20336;-96
2023/10/27 04:10:00;;;;;;;20.42;9.70;;;;;;;9.91;100.00;99041.31;6278364;22;20003;-96
2023/10/27 04:12:54;;;;;;;;;;;;;;;;;;;;;
2023/10/27 04:15:32;;;;;;;19.80;9.60;;;;;;;9.87;100.00;99037.00;6305494;22;20078;-96
2023/10/27 04:18:00;;;;;;;19.45;9.30;;;;;;;9.89;100.00;99037.88;6277853;22;20429;-96
2023/10/27 04:23:20;;;;;;;16.77;9.15;;;;;;;9.92;100.00;99036.97;6305644;22;20034;-96
2023/10/27 04:25:51;;;;;;;16.65;9.48;;;;;;;9.92;100.00;99034.38;6277789;22;20003;-96
2023/10/27 04:28:16;;;;;;;16.67;9.35;;;;;;;9.94;100.00;99037.00;6277203;22;20010;-96
2023/10/27 04:31:02;;;;;;;15.70;8.85;;;;;;;9.96;100.00;99040.44;6276996;22;19999;-96
2023/10/27 04:33:50;;;;;;;15.85;9.02;;;;;;;9.99;100.00;99045.66;6277593;22;20380;-96
2023/10/27 04:36:15;;;;;;;15.75;8.68;;;;;;;9.98;100.00;99036.97;6302902;22;20007;-96
2023/10/27 04:38:44;;;;;;;20.88;9.43;;;;;;;9.99;100.00;99040.44;6275087;22;20007;-96
2023/10/27 04:41:30;;;;;;;16.00;8.40;;;;;;;9.99;100.00;99043.03;6277213;22;20007;-96
2023/10/27 04:43:58;;;;;;;16.17;8.25;;;;;;;10.00;100.00;99044.78;6277382;22;20057;-96
2023/10/27 04:46:27;;;;;;;18.58;8.55;;;;;;;10.00;100.00;99053.44;6278022;22;20003;-96
2023/10/27 04:49:21;;;;;;;17.77;8.77;;;;;;;10.02;100.00;99053.44;6273775;22;20441;-96
2023/10/27 04:52:01;;;;;;;15.63;8.45;;;;;;;10.01;100.00;99049.97;6277547;22;20034;-96
2023/10/27 04:54:34;;;;;;;18.52;8.63;;;;;;;10.02;100.00;99048.22;6304214;22;20003;-96
2023/10/27 04:57:03;;;;;;;16.20;8.80;;;;;;;9.99;100.00;99043.03;6277970;22;20084;-96
2023/10/27 04:59:40;;;;;;;17.00;9.07;;;;;;;9.96;100.00;99038.69;6303763;22;20019;-96
2023/10/27 05:02:09;;;;;;;16.58;8.50;;;;;;;9.95;100.00;99042.19;6277307;22;20007;-96
2023/10/27 05:04:41;;;;;;;19.77;8.95;;;;;;;9.96;100.00;99037.84;6276325;22;20007;-96
2023/10/27 05:07:16;;;;;;;17.52;8.95;;;;;;;9.95;100.00;99036.13;6275979;22;20007;-96
2023/10/27 05:09:58;;;;;;;18.98;8.75;;;;;;;9.97;100.00;99034.38;6278617;22;20003;-96
2023/10/27 05:15:17;;;;;;;18.02;8.77;;;;;;;9.94;100.00;99029.19;6283750;22;20026;-96
2023/10/27 05:17:49;;;;;;;16.45;9.05;;;;;;;9.92;100.00;99022.25;6278903;22;20444;-96
2023/10/27 05:20:25;;;;;;;16.13;9.02;;;;;;;9.95;100.00;99036.13;6278768;22;20011;-96
2023/10/27 05:23:02;;;;;;;17.65;8.60;;;;;;;9.92;100.00;99027.47;6280011;22;20078;-96
2023/10/27 05:25:37;;;;;;;14.25;8.82;;;;;;;9.92;100.00;99021.38;6310638;22;20002;-96
2023/10/27 05:28:03;;;;;;;18.58;9.30;;;;;;;9.90;100.00;99012.72;6310153;22;20041;-96
2023/10/27 05:33:28;;;;;;;16.48;8.55;;;;;;;9.91;100.00;99020.50;6338193;22;20437;-96
2023/10/27 05:36:03;;;;;;;17.45;8.93;;;;;;;9.90;100.00;99015.31;6311221;22;20014;-96
2023/10/27 05:38:50;;;;;;;17.65;8.63;;;;;;;9.87;100.00;99018.78;6310177;22;20006;-96
2023/10/27 05:41:24;;;;;;;17.65;8.70;;;;;;;9.85;100.00;99014.50;6310139;22;20077;-96
2023/10/27 05:43:55;;;;;;;15.68;9.07;;;;;;;9.85;100.00;99017.94;6310829;22;20014;-96
2023/10/27 05:46:29;;;;;;;15.45;8.90;;;;;;;9.87;100.00;99021.38;6311194;22;20010;-96
2023/10/27 05:49:00;;;;;;;17.13;9.32;;;;;;;9.88;100.00;99017.06;6310570;22;20010;-96
2023/10/27 05:51:30;;;;;;;16.73;9.05;;;;;;;9.87;100.00;99010.13;6310815;22;20007;-96
2023/10/27 05:54:02;;;;;;;18.65;9.48;;;;;;;9.88;100.00;99019.69;6311953;22;20051;-96
2023/10/27 05:56:53;;;;;;;17.27;9.02;;;;;;;9.88;100.00;99020.53;6309445;22;20007;-95
2023/10/27 05:59:19;;;;;;;19.40;9.80;;;;;;;9.84;100.00;99016.19;6309704;22;19999;-96
2023/10/27 06:01:53;;;;;;;17.30;8.98;;;;;;;9.84;100.00;99023.16;6312758;22;20313;-96
2023/10/27 06:04:19;;;;;;;17.60;9.38;;;;;;;9.83;100.00;99017.06;6313185;22;20003;-96
2023/10/27 06:09:31;;;;;;;17.58;8.85;;;;;;;9.88;100.00;99024.88;6192974;23;20062;-96
2023/10/27 06:12:04;;;;;;;17.90;9.00;;;;;;;9.87;100.00;99025.75;6188339;23;20621;-96
2023/10/27 06:14:43;;;;;;;15.48;8.57;;;;;;;9.86;100.00;99022.28;6189553;23;20079;-96
2023/10/27 06:17:20;;;;;;;16.02;8.48;;;;;;;9.88;100.00;99028.34;6189483;23;20011;-96
2023/10/27 06:20:06;;;;;;;15.20;8.73;;;;;;;9.89;100.00;99024.88;6189379;23;20078;-96
2023/10/27 06:22:40;;;;;;;15.60;8.43;;;;;;;9.89;100.00;99030.06;6184188;23;20339;-95
2023/10/27 06:25:31;;;;;;;16.83;8.90;;;;;;;9.88;100.00;99025.72;6185977;23;20087;-96
2023/10/27 06:28:02;;;;;;;14.70;8.75;;;;;;;9.86;100.00;99024.88;6188049;23;20004;-96
2023/10/27 06:30:33;;;;;;;19.98;9.43;;;;;;;9.88;100.00;99032.69;6187877;23;20001;-96
2023/10/27 06:33:01;;;;;;;16.13;9.02;;;;;;;9.84;100.00;99034.41;6187573;23;20084;-96
2023/10/27 06:35:45;;;;;;;17.13;8.90;;;;;;;9.83;100.00;99032.66;6186983;23;20009;-96
2023/10/27 06:38:16;;;;;;;16.80;9.75;;;;;;;9.82;100.00;99036.16;6186319;23;20062;-96
2023/10/27 06:40:42;;;;;;;14.88;8.63;;;;;;;9.83;100.00;99034.41;6187297;23;20009;-96
2023/10/27 06:43:32;;;;;;;13.65;8.70;;;;;;;9.86;100.00;99042.22;6187607;23;20004;-96
2023/10/27 06:46:01;;;;;;;14.18;8.77;;;;;;;9.87;100.00;99042.19;6195177;23;20382;-96
2023/10/27 06:48:37;;;;;;;15.03;8.60;;;;;;;9.87;100.00;99038.75;6188418;23;20016;-96
2023/10/27 06:51:03;;;;;;;16.92;8.70;;;;;;;9.87;100.00;99044.81;6190281;23;20244;-96
2023/10/27 06:53:44;;;;;;;15.30;9.13;;;;;;;9.86;100.00;99043.09;6189145;23;20446;-96
2023/10/27 06:56:20;;;;;;;14.00;8.50;;;;;;;9.87;100.00;99042.19;6190516;23;20000;-96
2023/10/27 06:58:53;;;;;;;15.95;8.52;;;;;;;9.86;100.00;99037.88;6189228;23;20008;-96
2023/10/27 07:01:19;;;;;;;13.00;7.90;;;;;;;9.88;100.00;99051.75;6189871;23;20084;-96
2023/10/27 07:03:50;;;;;;;12.85;7.95;;;;;;;9.90;100.00;99055.19;6215268;23;20036;-96
2023/10/27 07:06:22;;;;;;;14.73;8.07;;;;;;;9.95;100.00;99056.91;6189515;23;20013;-96
2023/10/27 07:08:55;;;;;;;15.80;8.85;;;;;;;9.98;100.00;99062.13;6205414;23;20017;-96
2023/10/27 07:11:43;;;;;;;13.52;8.63;;;;;;;9.98;100.00;99056.91;6214645;23;20722;-95
2023/10/27 07:14:14;;;;;;;13.57;8.80;;;;;;;9.97;100.00;99056.06;6213836;23;20035;-95
2023/10/27 07:16:45;;;;;;;13.05;8.20;;;;;;;9.95;100.00;99063.00;6240104;23;20031;-96
2023/10/27 07:19:16;;;;;;;14.63;8.63;;;;;;;9.96;100.00;99054.31;6211773;23;20008;-96
2023/10/27 07:21:52;;;;;;;14.60;8.63;;;;;;;9.96;100.00;99058.66;6212987;23;20455;-96
2023/10/27 07:24:25;;;;;;;16.25;8.63;;;;;;;9.96;100.00;99067.31;6214924;23;20107;-96
2023/10/27 07:26:54;;;;;;;14.15;8.20;;;;;;;9.97;100.00;99068.22;6215472;23;20028;-96
2023/10/27 07:29:23;;;;;;;17.13;8.97;;;;;;;9.96;100.00;99069.06;6214236;23;20380;-96
2023/10/27 07:31:51;;;;;;;15.07;9.45;;;;;;;9.97;100.00;99070.81;6214076;23;20008;-96
2023/10/27 07:34:19;;;;;;;15.18;8.52;;;;;;;9.97;100.00;99076.00;6212757;23;20008;-96
2023/10/27 07:36:53;;;;;;;16.98;9.30;;;;;;;9.97;100.00;99063.88;6212892;23;20008;-96
2023/10/27 07:39:26;;;;;;;15.63;8.40;;;;;;;9.99;100.00;99067.31;6212430;23;20062;-96
2023/10/27 07:41:58;;;;;;;11.90;7.55;;;;;;;9.99;100.00;99079.47;6212840;23;20000;-96
2023/10/27 07:44:28;;;;;;;13.65;7.78;;;;;;;9.98;100.00;99082.94;6240318;23;20055;-96
2023/10/27 07:47:15;;;;;;;11.98;7.55;;;;;;;9.96;100.00;99080.34;6239897;23;20012;-96
2023/10/27 07:49:41;;;;;;;13.75;7.93;;;;;;;9.95;100.00;99083.81;6212873;23;20381;-96
2023/10/27 07:52:55;;;;;;;11.30;6.82;;;;;;;9.95;100.00;99094.22;6217958;23;19996;-96
2023/10/27 07:55:30;;;;;;;12.27;6.80;;;;;;;9.97;100.00;99086.44;6222583;23;20013;-96
2023/10/27 07:58:04;;;;;;;13.65;8.25;;;;;;;9.96;100.00;99084.69;6244139;23;20210;-96
2023/10/27 08:00:38;;;;;;;12.98;7.75;;;;;;;9.96;100.00;99098.53;6216939;23;20012;-96
2023/10/27 08:03:09;;;;;;;15.55;7.75;;;;;;;9.96;100.00;99095.94;6254449;22;20087;-96
2023/10/27 08:05:53;;;;;;;12.88;7.68;;;;;;;9.95;100.00;99103.75;6279207;22;20011;-96
2023/10/27 08:08:33;;;;;;;12.70;7.10;;;;;;;9.94;100.00;99094.25;6282621;22;20076;-96
2023/10/27 08:11:01;;;;;;;11.20;7.40;;;;;;;9.96;100.00;99106.34;6272294;22;20024;-96
2023/10/27 08:13:29;;;;;;;12.07;8.07;;;;;;;9.97;100.00;99102.03;6276908;22;20082;-96
2023/10/27 08:16:13;;;;;;;13.07;7.93;;;;;;;9.96;100.00;99106.34;6278179;22;20027;-96
2023/10/27 08:19:02;;;;;;;12.00;8.13;;;;;;;9.96;100.00;99095.94;6279454;22;20449;-96
2023/10/27 08:21:53;;;;;;;10.85;6.97;;;;;;;9.95;100.00;99093.34;6278636;22;20008;-96
2023/10/27 08:24:42;;;;;;;11.70;7.20;;;;;;;9.95;100.00;99095.94;6278280;22;20019;-96
2023/10/27 08:27:32;;;;;;;12.57;8.02;;;;;;;9.98;100.00;99098.53;6226334;22;20381;-96
2023/10/27 08:30:14;;;;;;;11.13;7.00;;;;;;;9.97;100.00;99107.25;6280098;22;20018;-96
2023/10/27 08:32:55;;;;;;;12.57;8.20;;;;;;;9.97;100.00;99115.91;6253724;22;20004;-96
2023/10/27 08:35:31;;;;;;;13.88;8.40;;;;;;;9.98;100.00;99124.56;6254735;22;20011;-96
2023/10/27 08:38:01;;;;;;;12.65;7.88;;;;;;;9.99;100.00;99128.91;6253656;22;20059;-96
2023/10/27 08:40:44;;;;;;;11.32;7.45;;;;;;;10.00;100.00;99128.03;6252712;22;20050;-96
2023/10/27 08:43:20;;;;;;;12.98;8.20;;;;;;;10.00;100.00;99134.09;6253544;22;20082;-96
2023/10/27 08:46:29;;;;;;;;;;;;;;;;;;;;;
2023/10/27 08:49:02;;;;;;;11.35;7.35;;;;;;;10.02;100.00;99126.28;6275346;22;20023;-96
2023/10/27 08:51:57;;;;;;;11.73;7.25;;;;;;;10.03;100.00;99133.25;6284602;22;20082;-96
2023/10/27 08:54:30;;;;;;;12.02;7.38;;;;;;;10.06;100.00;99135.81;6249956;22;20014;-96
2023/10/27 08:57:02;;;;;;;11.10;7.28;;;;;;;10.05;100.00;99128.88;6252697;22;20012;-96
2023/10/27 08:59:39;;;;;;;11.52;6.47;;;;;;;10.06;100.00;99128.03;6254321;22;20008;-96
2023/10/27 09:02:44;;;;;;;13.10;7.13;;;;;;;10.05;100.00;99123.69;6280008;22;20038;-96
2023/10/27 09:05:38;;;;;;;11.35;6.88;;;;;;;10.07;100.00;99127.16;6253019;22;20066;-96
2023/10/27 09:08:21;;;;;;;11.75;7.18;;;;;;;10.08;100.00;99131.50;6265513;22;20038;-96
2023/10/27 09:11:13;;;;;;;10.82;6.78;;;;;;;10.10;100.00;99137.56;6283539;22;20016;-96
2023/10/27 09:14:02;;;;;;;12.27;7.43;;;;;;;10.11;100.00;99134.09;6262423;22;20012;-96
2023/10/27 09:16:34;;;;;;;;;;;;;;;10.19;100.00;99141.88;6263444;22;19999;-96
2023/10/27 09:19:02;;;;;;;12.85;6.82;;;;;;;10.17;100.00;99149.69;6282593;22;19903;-96
2023/10/27 09:22:00;;;;;;;11.67;6.33;;;;;;;10.17;100.00;99141.88;6288430;22;20000;-96
2023/10/27 09:24:32;;;;;;;15.70;7.13;;;;;;;10.16;100.00;99137.53;6263258;22;20067;-96
2023/10/27 09:27:02;;;;;;;14.05;7.32;;;;;;;10.18;100.00;99133.22;6288921;22;20056;-96
2023/10/27 09:29:54;;;;;;;12.63;7.85;;;;;;;10.19;100.00;99127.13;6266409;22;20000;-96
2023/10/27 09:32:36;;;;;;;14.15;7.97;;;;;;;10.19;100.00;99142.72;6253257;22;20014;-96
2023/10/27 09:35:27;;;;;;;15.23;7.65;;;;;;;10.21;100.00;99141.00;6255288;22;20004;-96
2023/10/27 09:38:03;;;;;;;14.48;7.55;;;;;;;10.22;100.00;99144.47;6283710;22;20082;-96
2023/10/27 09:40:33;;;;;;;17.38;9.15;;;;;;;10.23;100.00;99133.19;6278512;22;20008;-96
2023/10/27 09:43:02;;;;;;;30.02;16.00;;;;;;;10.24;100.00;99127.97;6252855;22;20003;-96
2023/10/27 09:45:46;;;;;;;17.30;9.75;;;;;;;10.27;100.00;99140.97;6281470;22;20008;-96
2023/10/27 09:51:46;;;;;;;12.07;7.00;;;;;;;10.32;100.00;99140.09;6255110;22;20012;-96
2023/10/27 09:54:17;;;;;;;12.25;6.50;;;;;;;10.33;100.00;99140.09;6257340;22;20003;-96
2023/10/27 09:57:02;;;;;;;10.85;6.78;;;;;;;10.37;100.00;99138.38;6254112;22;20264;-96
2023/10/27 09:59:37;;;;;;;12.77;7.68;;;;;;;10.41;100.00;99135.78;6280499;22;20102;-96
2023/10/27 10:02:05;;;;;;;14.70;9.00;;;;;;;10.47;100.00;99136.63;6253944;22;20031;-96
2023/10/27 10:05:04;;;;;;;14.40;8.18;;;;;;;10.52;100.00;99135.72;6280151;22;20079;-96
2023/10/27 10:07:37;;;;;;;;;;;;;;;10.57;100.00;99136.59;6279915;22;20007;-96
2023/10/27 10:10:21;;;;;;;25.15;18.63;;;;;;;10.50;100.00;99129.66;6280888;22;19926;-96
2023/10/27 10:13:19;;;;;;;19.38;12.10;;;;;;;10.56;100.00;99142.66;6312679;22;20023;-96
2023/10/27 10:16:05;;;;;;;11.93;6.38;;;;;;;10.53;100.00;99155.69;6283305;22;20015;-96
2023/10/27 10:19:12;;;;;;;12.52;6.65;;;;;;;10.56;100.00;99160.03;6285792;22;20001;-96
2023/10/27 10:21:48;;;;;;;14.57;8.05;;;;;;;10.53;100.00;99160.91;6289280;22;20053;-96
2023/10/27 10:24:22;;;;;;;11.23;6.93;;;;;;;10.55;100.00;99168.72;6286618;22;20010;-96
2023/10/27 10:27:05;;;;;;;15.88;9.88;;;;;;;10.53;100.00;99160.03;6280421;22;20414;-96
2023/10/27 10:30:21;;;;;;;16.75;9.77;;;;;;;10.55;100.00;99159.16;6292261;22;20006;-96
2023/10/27 10:32:50;;;;;;;18.10;10.25;;;;;;;10.55;100.00;99159.16;6291159;22;20076;-96
2023/10/27 10:35:37;;;;;;;16.13;8.27;;;;;;;10.54;100.00;99162.66;6282608;22;20010;-96
2023/10/27 10:38:22;;;;;;;20.17;9.15;;;;;;;10.58;100.00;99166.09;6283977;22;20022;-96
2023/10/27 10:41:02;;;;;;;17.33;8.52;;;;;;;10.59;100.00;99170.44;6281773;22;20003;-96
2023/10/27 10:43:41;;;;;;;19.77;10.10;;;;;;;10.61;100.00;99168.69;6282286;22;20027;-96
2023/10/27 10:46:23;;;;;;;20.13;9.23;;;;;;;10.59;100.00;99160.88;6285268;22;20015;-96
2023/10/27 10:49:20;;;;;;;19.55;9.82;;;;;;;10.59;100.00;99158.28;6278712;22;20015;-96
2023/10/27 10:51:59;;;;;;;18.42;8.48;;;;;;;10.60;100.00;99159.13;6283065;22;20070;-96
2023/10/27 10:54:37;;;;;;;17.80;9.02;;;;;;;10.60;100.00;99161.72;6284951;22;20011;-96
2023/10/27 10:57:11;;;;;;;21.65;10.95;;;;;;;10.55;100.00;99153.94;6229074;23;20015;-96
2023/10/27 11:00:35;;;;;;;;;;;;;;;;;;;;;
2023/10/27 11:03:59;;;;;;;22.25;11.45;;;;;;;10.58;100.00;99159.13;6139545;23;20021;-96
2023/10/27 11:06:38;;;;;;;25.40;11.93;;;;;;;10.61;100.00;99160.88;6131957;23;20397;-96
2023/10/27 11:09:52;;;;;;;24.63;12.00;;;;;;;10.64;100.00;99153.03;6205752;23;20000;-96
2023/10/27 11:16:01;;;;;;;24.27;11.90;;;;;;;10.74;100.00;99151.28;6255408;23;20008;-96
2023/10/27 11:18:35;;;;;;;21.17;10.77;;;;;;;10.76;100.00;99147.78;6224091;23;20000;-96
2023/10/27 11:21:04;;;;;;;25.38;11.68;;;;;;;10.80;100.00;99153.84;6230699;23;20019;-96
2023/10/27 11:26:44;;;;;;;19.80;11.13;;;;;;;10.94;100.00;99156.38;6258143;23;20438;-96
2023/10/27 11:29:11;;;;;;;;;;;;;;;11.00;100.00;99155.50;6293352;22;20031;-96
2023/10/27 11:31:55;;;;;;;17.25;9.40;;;;;;;10.96;100.00;99160.72;6285129;22;19907;-96
2023/10/27 11:34:51;;;;;;;14.50;8.70;;;;;;;11.01;100.00;99158.09;6279976;22;20059;-96
2023/10/27 11:40:32;;;;;;;12.90;8.13;;;;;;;11.06;100.00;99158.91;6301754;22;20031;-96
2023/10/27 11:51:03;;;;;;;13.70;7.97;;;;;;;11.22;100.00;99162.28;6294371;22;20034;-96
2023/10/27 11:53:52;;;;;;;14.70;7.47;;;;;;;11.27;100.00;99155.31;6286363;22;20007;-96
2023/10/27 11:56:52;;;;;;;14.68;8.13;;;;;;;11.26;100.00;99153.59;6281605;22;20007;-96
2023/10/27 11:59:25;;;;;;;15.20;8.05;;;;;;;11.28;100.00;99162.28;6268858;22;20460;-96
2023/10/27 12:02:01;;;;;;;14.80;8.15;;;;;;;11.35;100.00;99151.78;6284086;22;20007;-96
2023/10/27 12:04:36;;;;;;;13.98;7.65;;;;;;;11.36;100.00;99158.75;6284667;22;20052;-96
2023/10/27 12:07:01;;;;;;;16.55;9.85;;;;;;;11.38;100.00;99157.00;6285337;22;20058;-96
2023/10/27 12:09:33;;;;;;;13.07;7.18;;;;;;;11.39;100.00;99158.72;6285313;22;20003;-96
2023/10/27 12:12:05;;;;;;;30.63;23.23;;;;;;;11.36;100.00;99164.81;6282934;22;20102;-96
2023/10/27 12:14:47;;;;;;;17.67;10.25;;;;;;;11.36;100.00;99163.97;6284430;22;20046;-96
2023/10/27 12:17:20;;;;;;;15.02;8.85;;;;;;;11.38;100.00;99162.19;6284171;22;20062;-96
2023/10/27 12:19:53;;;;;;;14.68;7.78;;;;;;;11.38;100.00;99160.44;6284400;22;20147;-96
2023/10/27 12:22:25;;;;;;;13.98;6.75;;;;;;;11.40;100.00;99168.28;6285890;22;20003;-96
2023/10/27 12:25:05;;;;;;;16.55;9.90;;;;;;;11.41;100.00;99177.81;6285273;22;20003;-96
2023/10/27 12:27:34;;;;;;;12.00;7.22;;;;;;;11.43;100.00;99174.34;6285402;22;20011;-96
2023/10/27 12:30:00;;;;;;;12.25;7.45;;;;;;;11.43;100.00;99171.72;6305941;22;20004;-96
2023/10/27 12:32:49;;;;;;;12.27;6.38;;;;;;;11.42;100.00;99166.53;6315789;22;20014;-96
2023/10/27 12:35:29;;;;;;;;;;;;;;;;;;;;;
2023/10/27 12:38:00;;;;;;;9.77;6.07;;;;;;;11.33;100.00;99171.81;6318336;22;20018;-96
2023/10/27 12:40:38;;;;;;;9.80;4.82;;;;;;;11.28;100.00;99177.91;6288919;22;20026;-96
2023/10/27 12:43:19;;;;;;;7.00;3.60;;;;;;;11.24;100.00;99176.19;6311557;22;20062;-96
2023/10/27 12:45:45;;;;;;;8.25;4.65;;;;;;;11.11;100.00;99180.63;6310958;22;20045;-96
2023/10/27 12:48:35;;;;;;;19.02;12.40;;;;;;;11.12;100.00;99181.47;6312021;22;20029;-96